Tiempo atmosférico en la estación meteorológica de Pontevedra, Pontevedra (108 m.)



Fecha
DESCASC
Temp. máxima en grados centígrados (hora)
DESCASC
Temp. mínima en grados centígrados (hora)
DESCASC
Temp. media en grados centígrados
DESCASC
Racha de viento máxima en m/sg (hora)
DESCASC
Velocidad máxima media en intervalos de 10 minutos(hora)
DESCASC
Precipitaciones diarias en mm
DESCASC
Precipitaciones de 00:00 a 06:00 en mm
DESCASC
Precipitaciones de 06:00 a 12:00 en mm
DESCASC
Precipitaciones de 12:00 a 18:00 en mm
DESCASC
Precipitaciones de 18:00 a 24:00 en mm
DESCASC
23-06-2019 21.5 (16:40) 14.7 (02:20) 18.1 9.44 (16:00) 4.72 (16:10) 2 1.8 0.2 0 0
22-06-2019 21.2 (16:00) 13.6 (05:20) 17.4 7.5 (15:00) 4.72 (15:00) 4.8 0 0 0 4.8
21-06-2019 22.8 (16:00) 11.4 (07:50) 17.1 8.33 (14:10) 4.72 (18:50) 0 0 0 0 0
20-06-2019 22.4 (16:50) 14.7 (00:00) 18.5 8.06 (19:40) 4.44 (13:30) 0 0 0 0 0
19-06-2019 19.9 (16:50) 15.3 (00:00) 17.6 8.89 (16:00) 5.56 (16:00) 0.2 0.2 0 0 0
18-06-2019 20.5 (13:20) 12.8 (00:00) 16.7 15 (14:30) 6.67 (14:30) 5.4 1 0.4 3.8 0.2
17-06-2019 18.6 (16:40) 10.3 (00:00) 14.5 7.22 (13:30) 4.17 (15:20) 0 0 0 0 0
16-06-2019 22.7 (15:40) 8.4 (00:00) 15.6 9.44 (16:00) 4.17 (16:30) 0 0 0 0 0
15-06-2019 19 (17:50) 11.6 (00:00) 15.3 6.94 (19:00) 4.17 (18:20) 3.4 3.4 0 0 0
14-06-2019 19.2 (16:20) 7.8 (00:00) 13.5 10.56 (17:30) 5.28 (17:40) 0.2 0 0 0 0.2
13-06-2019 19.3 (16:00) 8.2 (00:00) 13.7 8.61 (14:50) 5 (18:20) 0 0 0 0 0
12-06-2019 18.4 (14:20) 7.9 (00:00) 13.1 8.33 (18:40) 5 (18:40) 0 0 0 0 0
11-06-2019 19.9 (17:00) 10.7 (00:00) 15.3 11.11 (13:30) 6.11 (19:30) 0 0 0 0 0
10-06-2019 19.9 (14:30) 8.3 (00:00) 14.1 8.33 (13:20) 5 (13:20) 0 0 0 0 0
09-06-2019 19.8 (14:50) 9.1 (00:00) 14.4 8.89 (17:20) 5 (16:00) 0 0 0 0 0
08-06-2019 19 (18:30) 7.3 (00:00) 13.2 7.22 (16:40) 4.17 (15:40) 0 0 0 0 0
07-06-2019 17.5 (16:50) 8.2 (00:00) 12.8 10.56 (14:00) 5.83 (14:10) 9.6 5.8 3.8 0 0
06-06-2019 14.8 (19:30) 10.5 (00:00) 12.7 17.78 (15:10) 9.72 (16:10) 37.2 1 1 30.6 4.6
05-06-2019 17.3 (16:20) 9.6 (00:00) 13.4 10 (17:10) 5.83 (15:50) 1.2 0.2 0.4 0.2 0.4
04-06-2019 18.7 (14:50) 13.2 (00:00) 16 12.5 (08:10) 6.39 (16:20) 7.4 0 5 2.4 0
03-06-2019 18.9 (17:20) 15.2 (00:00) 17 8.61 (15:00) 5 (14:50) 1 0 0.6 0.4 0
02-06-2019 22.5 (17:40) 12.5 (00:00) 17.5 7.5 (18:50) 4.17 (18:20) 0 0 0 0 0
01-06-2019 29.4 (14:40) 15.1 (00:00) 22.3 8.61 (16:30) 4.44 (16:20) 0 0 0 0 0
31-05-2019 33.9 (14:10) 19.7 (00:00) 26.8 12.5 (14:50) 6.39 (14:50) 0 0 0 0 0
30-05-2019 30.3 (14:10) 15.6 (00:00) 22.9 7.5 (15:40) 3.89 (15:40) 0 0 0 0 0
29-05-2019 30.8 (17:20) 10.3 (00:00) 20.5 7.78 (19:30) 4.17 (16:40) 0 0 0 0 0
28-05-2019 24.5 (17:20) 9.7 (00:00) 17.1 11.67 (10:00) 5.56 (12:00) 0 0 0 0 0

Gráficas

Temp. máximas Temp. mínimas Temp. medias Precipitaciones Rachas de viento máximas Velocidades máximas media en intervalos de 10 minutos

Datos horarios

Fecha y hora oficial Temperatura (ºC) Velocidad del viento (km/h) Dirección del viento Racha (km/h) Dirección de racha Precipitación (mm) Presión (hPa) Tendencia (hPa) Humedad (%)
2019-06-26 23:00:00 16.8 3 Sudeste 5 Sudeste 0 1003.2 0.7 82
2019-06-26 22:00:00 17.7 3 Sur 12 Sudoeste 0 1002.8 0.5 77
2019-06-26 21:00:00 19 5 Sur 19 Oeste 0 1003 0.6 74
2019-06-26 20:00:00 18.7 10 Sudoeste 28 Sudoeste 0 1002.5 -0.4 74
2019-06-26 19:00:00 20.6 13 Sudoeste 28 Sudoeste 0 1002.3 -0.4 71
2019-06-26 18:00:00 21.1 11 Sudoeste 24 Sudoeste 0 1002.4 -0.2 70
2019-06-26 17:00:00 19.8 13 Sudoeste 24 Sudoeste 0 1002.9 0 74
2019-06-26 16:00:00 20.4 10 Sudoeste 19 Sudoeste 0 1002.7 -0.2 77
2019-06-26 15:00:00 20.5 6 Sudoeste 15 Sudoeste 0 1002.6 0.3 77
2019-06-26 14:00:00 18.4 7 Oeste 13 Oeste 0 1002.9 1.1 88
2019-06-26 13:00:00 16.6 10 Sudoeste 15 Sudoeste 0 1002.9 1.5 93
2019-06-26 12:00:00 16.3 9 Sudoeste 13 Sudoeste 0 1002.3 1.4 96
2019-06-26 11:00:00 15.9 4 Sur 13 Sur 1 1001.8 1.5 97
2019-06-26 10:00:00 15.8 6 Sur 14 Sur 0.4 1001.4 1.6 96
2019-06-26 09:00:00 15.6 5 Sur 19 Sur 0 1000.9 0.6 96
2019-06-26 08:00:00 15.2 6 Sudoeste 11 Oeste 0 1000.3 -0.3 95
2019-06-26 07:00:00 14.9 5 Norte 9 Norte 0 999.8 -1.1 94
2019-06-26 06:00:00 15 5 Sudeste 9 Nordeste 0 1000.3 -1 95
2019-06-26 05:00:00 15.4 2 Sudoeste 13 Norte 0 1000.6 -1.3 95
2019-06-26 04:00:00 15.4 5 Este 12 Este 0 1000.9 -2 95
2019-06-26 03:00:00 15.8 9 Nordeste 14 Nordeste 0 1001.3 -1.7 95
2019-06-26 02:00:00 16.1 7 Nordeste 10 Nordeste 0 1001.9 -0.6 95
2019-06-26 01:00:00 16.4 3 Sur 9 Sur 0 1002.9 -0.3 94
2019-06-26 00:00:00 16.6 4 Nordeste 12 Sudoeste 0.2 1003 1.3 93
2019-06-25 23:00:00 16.8 4 Norte 17 Nordeste 0.8 1002.5 -0.4 90
2019-06-25 22:00:00 17.9 5 Sur 28 Sudoeste 0.6 1003.2 1.5 86
2019-06-25 21:00:00 19.2 5 Noroeste 17 Nordeste 0 1001.7 -0.9 71
2019-06-25 20:00:00 20 8 Sudoeste 24 Sudoeste 0 1002.9 0.8 65
2019-06-25 19:00:00 20.9 5 Sudoeste 22 Sudoeste 0 1001.7 -0.6 66
2019-06-25 18:00:00 21.4 10 Sudoeste 29 Sudoeste 0 1002.6 0.3 59
2019-06-25 17:00:00 22.1 14 Sudoeste 28 Sudoeste 0 1002.1 -0.6 56
2019-06-25 16:00:00 21.5 13 Sudoeste 28 Sudoeste 0 1002.3 -0.4 58
2019-06-25 15:00:00 22.6 12 Sudoeste 24 Sudoeste 0 1002.3 0 54
2019-06-25 14:00:00 22.2 11 Sudoeste 21 Oeste 0 1002.7 0.5 56
2019-06-25 13:00:00 22 12 Sudoeste 28 Sudoeste 0 1002.7 0.4 57
2019-06-25 12:00:00 21.9 8 Oeste 11 Oeste 0 1002.3 0.1 62
2019-06-25 11:00:00 20 2 Sur 7 Oeste 0 1002.2 0 66
2019-06-25 10:00:00 17.3 2 Sudoeste 12 Nordeste 0 1002.3 0.3 77
2019-06-25 09:00:00 14.4 5 Nordeste 17 Nordeste 0 1002.2 0.1 85
2019-06-25 08:00:00 13.2 9 Nordeste 22 Nordeste 0 1002.2 0.4 89
2019-06-25 07:00:00 12.7 14 Nordeste 21 Nordeste 0 1002 0.1 92
2019-06-25 06:00:00 13 11 Nordeste 15 Nordeste 0 1002.1 -0.1 92
2019-06-25 05:00:00 13.2 9 Nordeste 13 Nordeste 0 1001.8 -0.8 93
2019-06-25 04:00:00 13.5 4 Este 16 Este 0 1001.9 -0.6 91
2019-06-25 03:00:00 14.1 9 Este 13 Este 0 1002.2 -0.3 90
2019-06-25 02:00:00 14.5 6 Nordeste 10 Este 0 1002.6 0.4 91
2019-06-25 01:00:00 15 7 Nordeste 11 Este 0 1002.5 0.8 88
2019-06-25 00:00:00 15.6 0 Calma 6 Sudeste 0 1002.5 1 87
2019-06-24 23:00:00 16.1 4 Sudeste 9 Sudoeste 0 1002.2 1 85
2019-06-24 22:00:00 18 5 Sudoeste 17 Sudoeste 0 1001.7 0.8 77
2019-06-24 21:00:00 18.3 10 Sudoeste 18 Sudoeste 0 1001.5 0.5 75
2019-06-24 20:00:00 17.7 12 Sudoeste 28 Sudoeste 0.6 1001.2 0.2 88
2019-06-24 19:00:00 18.9 10 Sudoeste 26 Sudoeste 0.4 1000.9 0.4 81
2019-06-24 18:00:00 20.8 16 Sudoeste 30 Sudoeste 0 1001 0.5 70
2019-06-24 17:00:00 19.9 15 Sudoeste 32 Sudoeste 0 1001 0.4 78
2019-06-24 16:00:00 19.8 14 Sudoeste 27 Sudoeste 0 1000.5 0 74
2019-06-24 15:00:00 20.2 13 Sudoeste 23 Sudoeste 0 1000.5 0.1 74
2019-06-24 14:00:00 18.6 14 Sudoeste 27 Sudoeste 0 1000.6 0.3 78
2019-06-24 13:00:00 21.5 10 Sur 18 Sur 0 1000.5 0.5 62
2019-06-24 12:00:00 19.2 3 Sur 8 Sudoeste 0 1000.4 0.4 77
2019-06-24 11:00:00 18.5 4 Sudeste 9 Nordeste 0 1000.3 0.2 75
2019-06-24 10:00:00 16.8 5 Nordeste 13 Nordeste 0 1000 0.3 81
2019-06-24 09:00:00 14.4 8 Nordeste 11 Nordeste 0 1000 0.2 90
2019-06-24 08:00:00 13.9 4 Este 12 Nordeste 0 1000.1 0.7 92
2019-06-24 07:00:00 13.9 5 Este 15 Nordeste 0 999.7 -0.1 91
2019-06-24 06:00:00 14.2 5 Este 8 Nordeste 0 999.8 -0.1 92
2019-06-24 05:00:00 14.4 8 Nordeste 12 Este 0 999.4 -0.6 90
2019-06-24 04:00:00 14.6 10 Nordeste 15 Nordeste 0 999.8 -0.6 91
2019-06-24 03:00:00 15.2 8 Nordeste 13 Este 0 999.9 -0.5 90
2019-06-24 02:00:00 15.3 8 Nordeste 12 Nordeste 0 1000 -0.1 89
2019-06-24 01:00:00 15.6 6 Este 9 Nordeste 0 1000.4 0.8 90
2019-06-24 00:00:00 16.1 4 Nordeste 6 Nordeste 0 1000.4 0.9 88
2019-06-23 23:00:00 16.5 2 Sur 10 Sudoeste 0 1000.1 1.1 86
2019-06-23 22:00:00 17.7 6 Sudoeste 14 Sudoeste 0 999.6 0.9 80
2019-06-23 21:00:00 17.6 7 Sudoeste 17 Sudoeste 0 999.5 0.6 81
2019-06-23 20:00:00 18.3 6 Oeste 23 Sudoeste 0 999 0.2 79
2019-06-23 19:00:00 19.3 11 Sudoeste 26 Sudoeste 0 998.7 0 76
2019-06-23 18:00:00 19.1 12 Sudoeste 29 Sudoeste 0 998.9 0.1 77
2019-06-23 17:00:00 20.6 14 Sudoeste 30 Sudoeste 0 998.8 0.2 70
2019-06-23 16:00:00 21.1 15 Sudoeste 34 Sudoeste 0 998.7 0.4 70
2019-06-23 15:00:00 19.6 17 Sudoeste 29 Sudoeste 0 998.8 0.6 73
2019-06-23 14:00:00 19.8 12 Sudoeste 22 Sudoeste 0 998.6 0.6 75
2019-06-23 13:00:00 19.9 12 Sudoeste 21 Sudoeste 0 998.3 0.4 79
2019-06-23 12:00:00 18.1 10 Sudoeste 18 Sudoeste 0 998.2 0.8 84
2019-06-23 11:00:00 19.1 6 Sur 15 Sudeste 0 998 1 80
2019-06-23 10:00:00 16.9 5 Sur 11 Sudoeste 0 997.9 1 90
2019-06-23 09:00:00 16.4 4 Sur 10 Sur 0 997.4 0.5 91
2019-06-23 08:00:00 15.5 0 Calma 4 Sudoeste 0 997 0 95
2019-06-23 07:00:00 15.3 0 Calma 9 Norte 0.2 996.9 -0.3 94
2019-06-23 06:00:00 15.6 4 Oeste 14 Sudeste 0 996.9 -0.7 90
2019-06-23 05:00:00 15.6 6 Sur 27 Sudeste 0 997 -0.7 89
2019-06-23 04:00:00 15.3 12 Sudeste 27 Sudeste 0 997.2 -0.8 89
2019-06-23 03:00:00 14.9 5 Sur 23 Sudeste 0.2 997.6 -0.5 87
2019-06-23 02:00:00 14.9 6 Sudoeste 20 Sudeste 0.4 997.7 -0.5 86
2019-06-23 01:00:00 15.5 9 Este 17 Sur 1.2 998 0.1 79
2019-06-23 00:00:00 18.3 5 Sur 15 Sur 0 998.1 -0.1 53
2019-06-22 23:00:00 18.8 8 Sudeste 21 Sur 0 998.2 0 51
2019-06-22 22:00:00 18.6 5 Sur 12 Sudoeste 0 997.9 -0.6 52
2019-06-22 21:00:00 18.8 2 Este 6 Sudoeste 4.8 998.2 -0.4 63
2019-06-22 20:00:00 19.1 3 Sudeste 13 Sudoeste 0 998.2 -0.6 59
2019-06-22 19:00:00 19.1 7 Sudoeste 14 Sudoeste 0 998.5 -0.5 62
2019-06-22 18:00:00 18.7 5 Sudoeste 17 Sudoeste 0 998.6 -0.9 64
2019-06-22 17:00:00 18.9 8 Sudoeste 22 Sudoeste 0 998.8 -1 63
2019-06-22 16:00:00 20.8 10 Sudoeste 24 Sudoeste 0 999 -0.5 63
2019-06-22 15:00:00 20.2 17 Sudoeste 27 Sudoeste 0 999.5 -0.3 67
2019-06-22 14:00:00 19.8 12 Sudoeste 22 Sur 0 999.8 -0.5 65
2019-06-22 13:00:00 20.5 9 Sur 18 Sur 0 999.5 -1.4 63
2019-06-22 12:00:00 17.8 3 Sudoeste 5 Sudoeste 0 999.8 -1.2 80
2019-06-22 11:00:00 17.2 3 Sur 6 Noroeste 0 1000.3 -0.5 81
2019-06-22 10:00:00 15.8 4 Noroeste 9 Nordeste 0 1000.9 0.7 85
2019-06-22 09:00:00 15 2 Sudoeste 9 Sur 0 1001 0.6 88
2019-06-22 08:00:00 13.8 3 Sudeste 11 Nordeste 0 1000.8 -0.5 90
2019-06-22 07:00:00 13.7 6 Nordeste 12 Este 0 1000.2 -1.6 87
2019-06-22 06:00:00 13.7 7 Nordeste 15 Nordeste 0 1000.4 -2.1 87
2019-06-22 05:00:00 13.9 3 Nordeste 10 Nordeste 0 1001.3 -1.2 86
2019-06-22 04:00:00 14.1 5 Nordeste 10 Nordeste 0 1001.8 -1 85
2019-06-22 03:00:00 14.2 4 Este 8 Este 0 1002.5 -0.7 85
2019-06-22 02:00:00 14.5 0 Calma 14 Nordeste 0 1002.5 -0.9 84
2019-06-22 01:00:00 15.3 8 Este 12 Este 0 1002.8 -0.8 80
2019-06-22 00:00:00 16 7 Este 10 Nordeste 0 1003.2 -0.4 77
2019-06-21 23:00:00 16.7 2 Sudeste 9 Sur 0 1003.4 0 70
2019-06-21 22:00:00 18.4 6 Sur 19 Sudoeste 0 1003.6 0 64
2019-06-21 21:00:00 20.6 6 Sur 21 Sudoeste 0 1003.6 -0.2 60
2019-06-21 20:00:00 21.2 13 Sudoeste 24 Sudoeste 0 1003.4 -0.6 57
2019-06-21 19:00:00 22 14 Sudoeste 29 Sudoeste 0 1003.6 -0.7 56
2019-06-21 18:00:00 22.2 14 Sudoeste 23 Sudoeste 0 1003.8 -0.7 56
2019-06-21 17:00:00 22 13 Sudoeste 26 Sudoeste 0 1004 -0.7 59
2019-06-21 16:00:00 22.4 13 Sudoeste 27 Sur 0 1004.3 -0.4 57
2019-06-21 15:00:00 21.6 14 Sudoeste 30 Sudoeste 0 1004.5 -0.3 60
2019-06-21 14:00:00 22.1 13 Sudoeste 23 Sudoeste 0 1004.7 -0.1 57
2019-06-21 13:00:00 22.2 6 Norte 20 Nordeste 0 1004.7 -0.4 52
2019-06-21 12:00:00 21.1 7 Noroeste 13 Oeste 0 1004.8 -0.3 58
2019-06-21 11:00:00 18.6 4 Sudoeste 10 Noroeste 0 1004.8 0 64
2019-06-21 10:00:00 16.7 3 Oeste 8 Oeste 0 1005.1 0.6 76
2019-06-21 09:00:00 13.2 3 Oeste 8 Nordeste 0 1005.1 0.9 88
2019-06-21 08:00:00 11.5 0 Calma 9 Nordeste 0 1004.8 0.4 90
2019-06-21 07:00:00 11.8 4 Este 16 Este 0 1004.5 0.1 88
2019-06-21 06:00:00 12.3 7 Nordeste 17 Nordeste 0 1004.2 -0.3 87
2019-06-21 05:00:00 12.5 8 Nordeste 15 Nordeste 0 1004.4 0.1 86
2019-06-21 04:00:00 12.4 5 Este 9 Nordeste 0 1004.4 0.2 87
2019-06-21 03:00:00 13 4 Nordeste 8 Norte 0 1004.5 0.7 87
2019-06-21 02:00:00 13.9 3 Nordeste 10 Norte 0 1004.3 1 86
2019-06-21 01:00:00 15.1 3 Nordeste 11 Norte 0 1004.2 1.6 76
2019-06-21 00:00:00 16.4 7 Nordeste 17 Nordeste 0 1003.8 1.4 71
2019-06-20 23:00:00 16.8 5 Norte 19 Norte 0 1003.3 1 73
2019-06-20 22:00:00 18.9 7 Noroeste 20 Noroeste 0 1002.6 0.7 67
2019-06-20 21:00:00 19.3 8 Noroeste 27 Noroeste 0 1002.4 0.4 67
2019-06-20 20:00:00 20.3 11 Noroeste 29 Noroeste 0 1002.3 0.1 67
2019-06-20 19:00:00 20.8 11 Noroeste 21 Noroeste 0 1001.9 -0.4 66
2019-06-20 18:00:00 20.9 10 Oeste 19 Oeste 0 1002 -0.3 64
2019-06-20 17:00:00 21.3 10 Sudoeste 19 Noroeste 0 1002.2 -0.2 67
2019-06-20 16:00:00 21.9 10 Noroeste 22 Oeste 0 1002.3 -0.3 60
2019-06-20 15:00:00 21.8 13 Oeste 23 Oeste 0 1002.3 -0.2 62
2019-06-20 14:00:00 21.4 10 Noroeste 23 Oeste 0 1002.4 -0.2 65
2019-06-20 13:00:00 21 14 Oeste 24 Noroeste 0 1002.6 -0.2 67
2019-06-20 12:00:00 20.5 8 Norte 19 Norte 0 1002.5 -0.1 67
2019-06-20 11:00:00 18.8 5 Noroeste 9 Noroeste 0 1002.6 0.2 76
2019-06-20 10:00:00 16.4 2 Oeste 4 Noroeste 0 1002.8 0.4 88
2019-06-20 09:00:00 15.5 0 Calma 5 Noroeste 0 1002.6 0 91
2019-06-20 08:00:00 15 2 Nordeste 4 Nordeste 0 1002.4 -0.1 93
2019-06-20 07:00:00 14.8 2 Nordeste 5 Noroeste 0 1002.4 -0.5 93
2019-06-20 06:00:00 14.8 0 Calma 4 Sudeste 0 1002.6 -0.7 94
2019-06-20 05:00:00 14.9 0 Calma 4 Noroeste 0 1002.5 -1 93
2019-06-20 04:00:00 15 0 Calma 4 Este 0 1002.9 -0.8 93
2019-06-20 03:00:00 14.9 6 Este 10 Nordeste 0 1003.3 -0.2 93
2019-06-20 02:00:00 15.2 6 Nordeste 9 Este 0 1003.5 0.2 94
2019-06-20 01:00:00 15 3 Sur 6 Nordeste 0 1003.7 0.6 94
2019-06-20 00:00:00 15.6 4 Nordeste 8 Sudoeste 0 1003.5 0.4 92
2019-06-19 23:00:00 15.9 3 Sudoeste 11 Sudoeste 0 1003.3 0.4 91
2019-06-19 22:00:00 16.6 7 Sudoeste 15 Sudoeste 0 1003.1 0.5 89
2019-06-19 21:00:00 16.7 8 Sudoeste 17 Sudoeste 0 1003.1 0.5 84
2019-06-19 20:00:00 17 12 Sudoeste 21 Sudoeste 0 1002.9 0.4 79
2019-06-19 19:00:00 17.6 12 Sudoeste 24 Sudoeste 0 1002.6 0.1 83
2019-06-19 18:00:00 18.6 9 Sudoeste 32 Sur 0 1002.6 0.3 82
2019-06-19 17:00:00 19.1 14 Sudoeste 32 Sudoeste 0 1002.5 0.5 75
2019-06-19 16:00:00 18.6 20 Sudoeste 32 Sudoeste 0 1002.5 0.7 78
2019-06-19 15:00:00 17.7 17 Sudoeste 31 Sudoeste 0 1002.3 0.8 84
2019-06-19 14:00:00 18.2 15 Sudoeste 28 Sudoeste 0 1002 1.1 85
2019-06-19 13:00:00 17.5 13 Sudoeste 26 Sudoeste 0 1001.8 1.1 86
2019-06-19 12:00:00 17 8 Sur 21 Sur 0 1001.5 1.2 84
2019-06-19 11:00:00 16.6 8 Sur 23 Sur 0 1000.9 1.1 88
2019-06-19 10:00:00 16.1 6 Sudeste 14 Sudoeste 0 1000.7 1.1 90
2019-06-19 09:00:00 15.8 4 Sur 13 Sur 0 1000.3 1.2 93
2019-06-19 08:00:00 15.5 4 Sur 14 Sudoeste 0 999.8 0.6 92
2019-06-19 07:00:00 15.3 3 Sur 12 Sur 0 999.6 0.6 93
2019-06-19 06:00:00 15.5 3 Sur 12 Sur 0 999.1 0.2 95
2019-06-19 05:00:00 15.7 6 Sur 10 Sur 0.2 999.2 0.2 94
2019-06-19 04:00:00 15.9 5 Sur 17 Sur 0 999 -0.2 92
2019-06-19 03:00:00 16 6 Sur 11 Sur 0 998.9 -0.1 91
2019-06-19 02:00:00 16.1 5 Sur 14 Sudeste 0 999 0.4 90
2019-06-19 01:00:00 16.2 8 Sur 20 Sur 0 999.2 1.1 90
2019-06-19 00:00:00 16.3 10 Sur 32 Sur 0 999 1.2 90
2019-06-18 23:00:00 16.5 13 Sur 27 Sur 0.2 998.6 1.4 89
2019-06-18 22:00:00 17.5 17 Sur 30 Sur 0 998.1 1.2 81
2019-06-18 21:00:00 17.9 18 Sur 37 Sur 0 997.8 1.1 78
2019-06-18 20:00:00 18.8 18 Sudoeste 44 Sur 0 997.2 0.7 75
2019-06-18 19:00:00 18.7 12 Sur 35 Sur 0 996.9 0.4 76
2019-06-18 18:00:00 18.5 13 Sur 39 Sur 0 996.7 0.9 77
2019-06-18 17:00:00 18.2 15 Sur 35 Sur 0 996.5 1 84
2019-06-18 16:00:00 16.5 18 Sur 42 Sur 2.2 996.5 1.1 94
2019-06-18 15:00:00 17 18 Sur 54 Sur 1.6 995.8 -0.3 90
2019-06-18 14:00:00 18.8 16 Sur 48 Sur 0 995.5 -0.7 75
2019-06-18 13:00:00 19.5 13 Sur 42 Sur 0 995.4 -1.2 77
2019-06-18 12:00:00 18.4 10 Sudeste 21 Sudeste 0 996.1 -0.5 78
2019-06-18 11:00:00 17.1 14 Sudeste 29 Sudeste 0 996.2 -0.3 79
2019-06-18 10:00:00 14.5 14 Sudeste 29 Sudeste 0 996.6 -0.6 83
2019-06-18 09:00:00 13.5 11 Sudeste 22 Sudeste 0.2 996.6 -0.6 85
2019-06-18 08:00:00 12.9 5 Este 11 Norte 0 996.5 -0.7 90
2019-06-18 07:00:00 13.1 2 Este 12 Este 0.2 997.2 -0.4 90
2019-06-18 06:00:00 13.6 4 Nordeste 8 Nordeste 0.6 997.2 -0.8 94
2019-06-18 05:00:00 13.8 5 Nordeste 7 Nordeste 0.4 997.2 -1.2 91
2019-06-18 04:00:00 14.4 0 Calma 8 Sur 0 997.6 -1 85
2019-06-18 03:00:00 14.3 3 Noroeste 9 Sur 0 998 -1.4 84
2019-06-18 02:00:00 14.5 4 Sudeste 6 Sudeste 0 998.4 -1.2 85
2019-06-18 01:00:00 15.1 8 Nordeste 17 Nordeste 0 998.6 -1.3 79
2019-06-18 00:00:00 14.2 5 Este 11 Nordeste 0 999.4 -0.9 84
2019-06-17 23:00:00 14.7 8 Nordeste 20 Nordeste 0 999.6 -0.3 81
2019-06-17 22:00:00 14.8 6 Este 17 Sudoeste 0 999.9 -0.3 81
2019-06-17 21:00:00 15.4 9 Sudoeste 24 Sudoeste 0 1000.3 -0.7 80
2019-06-17 20:00:00 16.9 8 Sudoeste 20 Sudoeste 0 999.9 -1.6 75
2019-06-17 19:00:00 18 8 Sudoeste 17 Sudoeste 0 1000.2 -1.5 74
2019-06-17 18:00:00 17.9 7 Sudoeste 19 Sudoeste 0 1001 -1.2 75
2019-06-17 17:00:00 18.4 9 Sudoeste 15 Sudoeste 0 1001.5 -0.9 70
2019-06-17 16:00:00 17.5 5 Noroeste 26 Sudoeste 0 1001.7 -0.8 77
2019-06-17 15:00:00 17 5 Oeste 14 Sudoeste 0 1002.2 0 80
2019-06-17 14:00:00 15.7 9 Sudoeste 26 Sudoeste 0 1002.4 0.3 84
2019-06-17 13:00:00 16.5 10 Sudoeste 21 Oeste 0 1002.5 0.3 80
2019-06-17 12:00:00 18.1 9 Sudoeste 15 Sudoeste 0 1002.2 -0.9 69
2019-06-17 11:00:00 16.9 4 Sudoeste 9 Sudoeste 0 1002.1 -0.7 71
2019-06-17 10:00:00 15.1 6 Norte 9 Norte 0 1002.2 -0.8 78
2019-06-17 09:00:00 12.3 2 Sur 10 Nordeste 0 1003.1 0 88
2019-06-17 08:00:00 11.1 8 Nordeste 12 Nordeste 0 1002.8 -0.6 89
2019-06-17 07:00:00 10.7 3 Nordeste 14 Nordeste 0 1003 -0.5 90
2019-06-17 06:00:00 10.9 10 Nordeste 13 Nordeste 0 1003.1 -1.2 90
2019-06-17 05:00:00 11.1 3 Nordeste 13 Este 0 1003.4 -1 90
2019-06-17 04:00:00 11.7 9 Este 13 Nordeste 0 1003.5 -1 88
2019-06-17 03:00:00 12.2 3 Sudeste 4 Sur 0 1004.3 -0.4 89
2019-06-17 02:00:00 12.8 4 Este 5 Este 0 1004.4 -0.3 85
2019-06-17 01:00:00 13.4 3 Nordeste 8 Este 0 1004.5 0.2 83
2019-06-17 00:00:00 14.5 0 Calma 5 Sudeste 0 1004.7 0.6 83
2019-06-16 23:00:00 15.2 3 Sudeste 9 Sudoeste 0 1004.7 1 80
2019-06-16 22:00:00 16.9 6 Sudoeste 17 Sudoeste 0 1004.3 0.6 68
2019-06-16 21:00:00 19.2 9 Sudoeste 20 Sudoeste 0 1004.1 0 55
2019-06-16 20:00:00 21.1 10 Sudoeste 23 Sudoeste 0 1003.7 -0.5 53
2019-06-16 19:00:00 22.2 11 Sudoeste 23 Sudoeste 0 1003.7 -0.6 51
2019-06-16 18:00:00 22 10 Sur 28 Sudoeste 0 1004.1 -0.4 55
2019-06-16 17:00:00 22.3 12 Sudoeste 30 Sudoeste 0 1004.2 -0.7 54
2019-06-16 16:00:00 22.4 13 Sur 34 Sudoeste 0 1004.3 -0.9 56
2019-06-16 15:00:00 21.3 12 Sudoeste 24 Sudoeste 0 1004.5 -1 57
2019-06-16 14:00:00 21.4 10 Sudoeste 18 Sudoeste 0 1004.9 -0.7 56
2019-06-16 13:00:00 20 7 Sudoeste 14 Sudoeste 0 1005.2 -0.8 61
2019-06-16 12:00:00 18.8 5 Sudoeste 15 Noroeste 0 1005.5 -0.4 64
2019-06-16 11:00:00 16.5 4 Sudoeste 9 Sur 0 1005.6 -0.3 70
2019-06-16 10:00:00 13.8 4 Sur 13 Nordeste 0 1006 0.2 78
2019-06-16 09:00:00 10.7 4 Nordeste 8 Nordeste 0 1005.9 0.1 88
2019-06-16 08:00:00 8.5 3 Este 13 Nordeste 0 1005.9 -0.3 91
2019-06-16 07:00:00 8.7 6 Nordeste 12 Nordeste 0 1005.8 -0.9 90
2019-06-16 06:00:00 9.2 6 Nordeste 16 Nordeste 0 1005.8 -1.2 89
2019-06-16 05:00:00 9.4 10 Nordeste 17 Este 0 1006.2 -1.6 89
2019-06-16 04:00:00 9.8 9 Nordeste 18 Nordeste 0 1006.7 -1.4 89
2019-06-16 03:00:00 10.4 13 Este 20 Este 0 1007 -1.1 88
2019-06-16 02:00:00 10.9 12 Nordeste 17 Este 0 1007.8 -0.2 88
2019-06-16 01:00:00 11.6 8 Este 13 Este 0 1008.1 0.5 87
2019-06-16 00:00:00 12.7 4 Este 7 Este 0 1008.1 0.3 84
2019-06-15 23:00:00 13.5 5 Sudeste 10 Sur 0 1008 0.2 81
2019-06-15 22:00:00 15.4 4 Sudoeste 18 Sudoeste 0 1007.6 -0.1 73
2019-06-15 21:00:00 16.9 12 Sudoeste 22 Sudoeste 0 1007.8 -0.3 63
2019-06-15 20:00:00 18.3 9 Sudoeste 23 Sudoeste 0 1007.8 -0.6 61
2019-06-15 19:00:00 18.3 14 Sudoeste 25 Sudoeste 0 1007.7 -0.9 61
2019-06-15 18:00:00 19 11 Sudoeste 24 Sudoeste 0 1008.1 -0.3 62
2019-06-15 17:00:00 17.6 11 Sudoeste 23 Sudoeste 0 1008.4 -0.1 67
2019-06-15 16:00:00 15.9 7 Sur 21 Sudoeste 0 1008.6 0.4 75
2019-06-15 15:00:00 15.9 8 Sur 19 Sudoeste 0 1008.4 0.4 75
2019-06-15 14:00:00 16.2 9 Sur 18 Sudoeste 0 1008.5 0.8 72
2019-06-15 13:00:00 16.7 4 Sur 11 Oeste 0 1008.2 0.8 71
2019-06-15 12:00:00 15.5 6 Sudoeste 10 Sur 0 1008 1 78
2019-06-15 11:00:00 14.6 4 Sudoeste 9 Sudoeste 0 1007.7 1 87
2019-06-15 10:00:00 13.7 3 Oeste 7 Noroeste 0 1007.4 1.3 94
2019-06-15 09:00:00 12.6 3 Norte 6 Noroeste 0 1007 1.2 97
2019-06-15 08:00:00 11.8 0 Calma 6 Este 0 1006.7 1 96
2019-06-15 07:00:00 11.9 4 Nordeste 6 Nordeste 0 1006.1 0.5 97
2019-06-15 06:00:00 11.7 0 Calma 4 Sur 0 1005.8 0.2 96
2019-06-15 05:00:00 12.2 2 Este 4 Este 0 1005.7 0 96
2019-06-15 04:00:00 12.4 2 Sudeste 5 Sudeste 0 1005.6 0.2 95
2019-06-15 03:00:00 13 3 Sudeste 6 Sudeste 0 1005.6 0.5 94
2019-06-15 02:00:00 13.1 4 Sudeste 9 Sudeste 1.8 1005.7 1 94
2019-06-15 01:00:00 13.1 5 Sudeste 13 Sudeste 1.6 1005.4 1.5 93
2019-06-15 00:00:00 13.7 4 Sur 21 Sudoeste 0.2 1005.1 1.4 90
2019-06-14 23:00:00 14.4 7 Sudoeste 19 Sudoeste 0 1004.7 1.3 81
2019-06-14 22:00:00 14.8 9 Sudoeste 19 Sudoeste 0 1003.9 1 78
2019-06-14 21:00:00 15.2 11 Sudoeste 26 Sudoeste 0 1003.7 1.1 73
2019-06-14 20:00:00 16.2 11 Sudoeste 28 Sudoeste 0 1003.4 1.1 69
2019-06-14 19:00:00 16.7 13 Sudoeste 30 Sudoeste 0 1002.9 0.9 65
2019-06-14 18:00:00 17.7 16 Sudoeste 38 Sudoeste 0 1002.6 1 65
2019-06-14 17:00:00 17.8 19 Sudoeste 37 Sudoeste 0 1002.3 0.7 60
2019-06-14 16:00:00 18.7 14 Sudoeste 33 Sudoeste 0 1002 0.8 53
2019-06-14 15:00:00 18.5 16 Sudoeste 31 Sudoeste 0 1001.6 0.7 48
2019-06-14 14:00:00 18.2 13 Sudoeste 26 Oeste 0 1001.6 0.9 52
2019-06-14 13:00:00 16.9 15 Sudoeste 24 Sudoeste 0 1001.2 0.7 57
2019-06-14 12:00:00 17.5 9 Sudoeste 16 Sudoeste 0 1000.9 0.7 59
2019-06-14 11:00:00 16 4 Sur 7 Sur 0 1000.7 0.5 61
2019-06-14 10:00:00 13.9 3 Nordeste 12 Este 0 1000.5 0.3 71
2019-06-14 09:00:00 10.3 6 Nordeste 18 Nordeste 0 1000.2 0.6 82
2019-06-14 08:00:00 7.9 10 Nordeste 17 Nordeste 0 1000.2 0.8 88
2019-06-14 07:00:00 7.9 10 Este 14 Este 0 1000.2 0.6 89
2019-06-14 06:00:00 8.4 10 Nordeste 16 Nordeste 0 999.6 -0.2 88
2019-06-14 05:00:00 8.7 12 Este 17 Nordeste 0 999.4 -0.5 88
2019-06-14 04:00:00 8.9 6 Nordeste 12 Este 0 999.6 -0.7 89
2019-06-14 03:00:00 9.9 8 Este 15 Este 0 999.8 -0.5 86
2019-06-14 02:00:00 10.8 7 Nordeste 12 Este 0 999.9 -0.1 84
2019-06-14 01:00:00 11 5 Nordeste 9 Nordeste 0 1000.3 0.6 84
2019-06-14 00:00:00 12 0 Calma 8 Sudeste 0 1000.3 0.9 80
2019-06-13 23:00:00 13.1 3 Sur 13 Sudoeste 0 1000 0.9 75
2019-06-13 22:00:00 14.8 5 Sudoeste 20 Sudoeste 0 999.7 0.5 66
2019-06-13 21:00:00 16.3 12 Sudoeste 23 Sudoeste 0 999.4 0.3 57
2019-06-13 20:00:00 17.4 13 Sudoeste 23 Sudoeste 0 999.1 0 57
2019-06-13 19:00:00 17.9 12 Sudoeste 30 Sudoeste 0 999.2 0.3 54
2019-06-13 18:00:00 18.1 14 Sudoeste 30 Sudoeste 0 999.1 0.1 56
2019-06-13 17:00:00 17.4 16 Sudoeste 30 Sudoeste 0 999.1 0.2 54
2019-06-13 16:00:00 19.1 14 Sudoeste 28 Sudoeste 0 998.9 0 50
2019-06-13 15:00:00 16.6 14 Sudoeste 31 Sudoeste 0 999 0.1 60
2019-06-13 14:00:00 16.7 12 Oeste 26 Oeste 0 998.9 -0.1 58
2019-06-13 13:00:00 17.3 13 Oeste 23 Sudoeste 0 998.9 -0.3 58
2019-06-13 12:00:00 16.7 8 Oeste 15 Noroeste 0 998.9 -0.1 59
2019-06-13 11:00:00 14.9 5 Oeste 12 Oeste 0 999 0.2 60
2019-06-13 10:00:00 12.8 3 Noroeste 8 Nordeste 0 999.2 0.4 76
2019-06-13 09:00:00 9.8 4 Nordeste 10 Nordeste 0 999 0.1 86
2019-06-13 08:00:00 8.5 6 Este 13 Nordeste 0 998.8 0 90
2019-06-13 07:00:00 8.3 11 Nordeste 15 Nordeste 0 998.8 -0.3 90
2019-06-13 06:00:00 8.6 9 Este 12 Este 0 998.9 -0.4 89
2019-06-13 05:00:00 9 7 Nordeste 11 Este 0 998.8 -0.8 89
2019-06-13 04:00:00 9.5 6 Nordeste 9 Nordeste 0 999.1 -1 89
2019-06-13 03:00:00 10 4 Nordeste 8 Nordeste 0 999.3 -1.1 87
2019-06-13 02:00:00 10.4 4 Nordeste 7 Este 0 999.6 -0.9 86
2019-06-13 01:00:00 10.8 2 Nordeste 5 Nordeste 0 1000.1 0 85
2019-06-13 00:00:00 11.9 0 Calma 7 Norte 0 1000.4 0.2 80
2019-06-12 23:00:00 12.9 2 Norte 12 Norte 0 1000.5 0.2 77
2019-06-12 22:00:00 14.4 5 Norte 14 Norte 0 1000.1 -0.2 69
2019-06-12 21:00:00 15.2 6 Noroeste 16 Norte 0 1000.2 -0.6 66
2019-06-12 20:00:00 16.5 12 Noroeste 26 Oeste 0 1000.3 -0.9 56
2019-06-12 19:00:00 17.9 17 Oeste 30 Oeste 0 1000.3 -1.2 56
2019-06-12 18:00:00 16.4 10 Noroeste 17 Noroeste 0 1000.8 -1.1 59
2019-06-12 17:00:00 15.9 5 Noroeste 26 Noroeste 0 1001.2 -1.1 61
2019-06-12 16:00:00 16.1 7 Sudoeste 23 Sudoeste 0 1001.5 -1.4 60
2019-06-12 15:00:00 16.4 12 Sudoeste 23 Sudoeste 0 1001.9 -1.5 59
2019-06-12 14:00:00 17.5 7 Noroeste 18 Noroeste 0 1002.3 -0.9 55
2019-06-12 13:00:00 16.1 9 Oeste 19 Oeste 0 1002.9 -0.5 58
2019-06-12 12:00:00 15 15 Noroeste 28 Noroeste 0 1003.4 -0.4 61
2019-06-12 11:00:00 14.8 8 Noroeste 15 Noroeste 0 1003.2 -0.7 63
2019-06-12 10:00:00 13.3 3 Noroeste 11 Este 0 1003.4 -0.6 74
2019-06-12 09:00:00 10.3 5 Nordeste 12 Nordeste 0 1003.8 0 85
2019-06-12 08:00:00 8.3 6 Este 10 Nordeste 0 1003.9 -0.4 90
2019-06-12 07:00:00 8 7 Este 13 Este 0 1004 -0.8 90
2019-06-12 06:00:00 8.6 8 Nordeste 12 Este 0 1003.8 -1.5 89
2019-06-12 05:00:00 8.7 3 Nordeste 6 Este 0 1004.3 -1.5 90
2019-06-12 04:00:00 9.4 5 Nordeste 8 Nordeste 0 1004.8 -1.2 87
2019-06-12 03:00:00 10 4 Nordeste 8 Nordeste 0 1005.3 -0.8 84
2019-06-12 02:00:00 10.6 4 Nordeste 11 Nordeste 0 1005.8 -0.2 81
2019-06-12 01:00:00 11.5 6 Nordeste 12 Nordeste 0 1006 0.4 77
2019-06-12 00:00:00 12 5 Nordeste 9 Norte 0 1006.1 0.5 73
2019-06-11 23:00:00 12.9 3 Norte 19 Norte 0 1006 0.5 68
2019-06-11 22:00:00 14.6 12 Noroeste 32 Norte 0 1005.6 0.3 58
2019-06-11 21:00:00 16.2 21 Norte 38 Noroeste 0 1005.6 0.2 50
2019-06-11 20:00:00 17.7 18 Noroeste 37 Noroeste 0 1005.5 0.1 47
2019-06-11 19:00:00 19.1 19 Noroeste 38 Norte 0 1005.3 -0.1 45
2019-06-11 18:00:00 19.5 18 Noroeste 36 Noroeste 0 1005.4 -0.4 46
2019-06-11 17:00:00 19.1 12 Norte 36 Noroeste 0 1005.4 -0.8 47
2019-06-11 16:00:00 19.1 13 Norte 37 Noroeste 0 1005.4 -0.8 45
2019-06-11 15:00:00 18.3 15 Noroeste 33 Norte 0 1005.8 -0.2 50
2019-06-11 14:00:00 17.5 19 Noroeste 40 Noroeste 0 1006.2 0.3 52
2019-06-11 13:00:00 16.3 19 Norte 36 Norte 0 1006.2 0.3 57
2019-06-11 12:00:00 16 15 Noroeste 31 Norte 0 1006 0.5 57
2019-06-11 11:00:00 14.5 13 Norte 33 Norte 0 1005.9 0.7 60
2019-06-11 10:00:00 13.4 13 Norte 32 Noroeste 0 1005.9 1 67
2019-06-11 09:00:00 12.4 8 Norte 18 Nordeste 0 1005.5 1.1 75
2019-06-11 08:00:00 10.7 4 Nordeste 16 Norte 0 1005.2 0.7 82
2019-06-11 07:00:00 11.4 6 Noroeste 17 Norte 0 1004.9 0.3 91
2019-06-11 06:00:00 12.2 7 Norte 18 Norte 0 1004.4 -0.3 80
2019-06-11 05:00:00 12.1 3 Norte 11 Noroeste 0 1004.5 -0.6 78
2019-06-11 04:00:00 12.8 3 Norte 8 Noroeste 0 1004.6 -0.6 76
2019-06-11 03:00:00 13 4 Norte 9 Nordeste 0 1004.7 -0.8 74
2019-06-11 02:00:00 13.5 6 Nordeste 17 Nordeste 0 1005.1 -0.2 70
2019-06-11 01:00:00 13.9 7 Nordeste 18 Norte 0 1005.2 0.1 68
2019-06-11 00:00:00 14.5 6 Norte 19 Norte 0 1005.5 0.3 69
2019-06-10 23:00:00 15 6 Noroeste 11 Oeste 0 1005.3 0.3 66
2019-06-10 22:00:00 15.5 5 Noroeste 10 Noroeste 0 1005.1 -0.4 65
2019-06-10 21:00:00 16.1 5 Noroeste 14 Sudoeste 0 1005.2 -0.3 64
2019-06-10 20:00:00 16.4 9 Sudoeste 17 Sudoeste 0 1005 -0.9 64
2019-06-10 19:00:00 17.2 7 Oeste 18 Sudoeste 0 1005.5 -0.5 61
2019-06-10 18:00:00 18.5 9 Oeste 24 Oeste 0 1005.5 -0.7 56
2019-06-10 17:00:00 18.7 15 Noroeste 24 Noroeste 0 1005.9 -1.1 57
2019-06-10 16:00:00 18.4 8 Sudoeste 29 Sudoeste 0 1006 -1.5 59
2019-06-10 15:00:00 19.6 12 Sudoeste 28 Oeste 0 1006.2 -1.3 52
2019-06-10 14:00:00 19.4 11 Noroeste 30 Oeste 0 1007 -0.8 44
2019-06-10 13:00:00 18.6 11 Noroeste 24 Norte 0 1007.5 -0.8 50
2019-06-10 12:00:00 17.2 14 Noroeste 23 Noroeste 0 1007.5 -0.5 54
2019-06-10 11:00:00 15.5 6 Oeste 13 Noroeste 0 1007.8 -0.1 68
2019-06-10 10:00:00 14.1 5 Norte 11 Norte 0 1008.3 0.7 74
2019-06-10 09:00:00 10.6 4 Nordeste 10 Este 0 1008 0.6 85
2019-06-10 08:00:00 8.3 3 Norte 11 Este 0 1007.9 0.4 90
2019-06-10 07:00:00 8.4 6 Nordeste 17 Este 0 1007.6 -0.2 90
2019-06-10 06:00:00 9.1 5 Nordeste 13 Este 0 1007.4 -0.5 88
2019-06-10 05:00:00 9.3 6 Nordeste 9 Nordeste 0 1007.5 -0.6 89
2019-06-10 04:00:00 10.1 0 Calma 6 Nordeste 0 1007.8 -0.6 85
2019-06-10 03:00:00 10.8 3 Noroeste 8 Norte 0 1007.9 -0.2 80
2019-06-10 02:00:00 11.8 6 Noroeste 12 Nordeste 0 1008.1 0.4 78
2019-06-10 01:00:00 13.3 2 Nordeste 8 Nordeste 0 1008.4 1.2 74
2019-06-10 00:00:00 13.9 2 Nordeste 11 Norte 0 1008.1 1.1 72
2019-06-09 23:00:00 15.1 8 Norte 13 Noroeste 0 1007.7 0.9 67
2019-06-09 22:00:00 15.6 4 Sur 11 Sur 0 1007.2 0.4 64
2019-06-09 21:00:00 16.3 5 Sudoeste 18 Sudoeste 0 1007 0.4 59
2019-06-09 20:00:00 18 10 Sudoeste 25 Sudoeste 0 1006.8 0.5 52
2019-06-09 19:00:00 18.4 12 Sudoeste 29 Sudoeste 0 1006.8 0.6 57
2019-06-09 18:00:00 18.4 18 Sudoeste 32 Sudoeste 0 1006.6 0.4 58
2019-06-09 17:00:00 18.9 16 Sudoeste 31 Sudoeste 0 1006.3 -0.1 50
2019-06-09 16:00:00 18.7 18 Sudoeste 30 Sudoeste 0 1006.2 -0.4 52
2019-06-09 15:00:00 19.2 13 Sudoeste 24 Sudoeste 0 1006.2 -0.4 53
2019-06-09 14:00:00 19.2 10 Sudoeste 17 Sudoeste 0 1006.4 -0.1 52
2019-06-09 13:00:00 18.3 9 Sudoeste 18 Sudoeste 0 1006.6 0.3 59
2019-06-09 12:00:00 16.8 6 Sudoeste 13 Sudoeste 0 1006.6 0.5 64
2019-06-09 11:00:00 15.3 2 Sudoeste 9 Sudoeste 0 1006.5 0.5 67
2019-06-09 10:00:00 14 4 Sur 9 Nordeste 0 1006.3 0.5 74
2019-06-09 09:00:00 11.3 6 Nordeste 14 Nordeste 0 1006.1 0.3 85
2019-06-09 08:00:00 9.4 8 Nordeste 13 Nordeste 0 1006 0 89
2019-06-09 07:00:00 9.6 5 Este 7 Nordeste 0 1005.8 -0.2 89
2019-06-09 06:00:00 10.2 2 Nordeste 9 Nordeste 0 1005.8 -0.4 87
2019-06-09 05:00:00 10.6 6 Nordeste 9 Nordeste 0 1006 -0.4 86
2019-06-09 04:00:00 10.9 0 Calma 5 Nordeste 0 1006 -0.4 86
2019-06-09 03:00:00 11.1 0 Calma 7 Noroeste 0 1006.2 -0.6 84
2019-06-09 02:00:00 11.5 3 Noroeste 7 Noroeste 0 1006.4 -0.7 82
2019-06-09 01:00:00 12.4 6 Noroeste 11 Noroeste 0 1006.4 -0.5 78
2019-06-09 00:00:00 13.3 5 Nordeste 10 Norte 0 1006.8 0.2 75
2019-06-08 23:00:00 14.1 7 Noroeste 13 Norte 0 1007.1 0.5 70
2019-06-08 22:00:00 15.4 5 Noroeste 13 Noroeste 0 1006.9 0.3 67
2019-06-08 21:00:00 17.1 6 Noroeste 19 Noroeste 0 1006.6 -0.3 58
2019-06-08 20:00:00 17.8 9 Noroeste 22 Noroeste 0 1006.6 -0.7 54
2019-06-08 19:00:00 18.8 12 Noroeste 24 Noroeste 0 1006.6 -1.1 52
2019-06-08 18:00:00 18.7 11 Noroeste 23 Noroeste 0 1006.9 -1.2 53
2019-06-08 17:00:00 16.7 14 Noroeste 26 Norte 0 1007.3 -0.9 59
2019-06-08 16:00:00 16.2 10 Noroeste 23 Noroeste 0 1007.7 -0.7 61
2019-06-08 15:00:00 18.2 12 Noroeste 25 Oeste 0 1008.1 -0.4 50
2019-06-08 14:00:00 18.1 11 Oeste 22 Oeste 0 1008.2 -0.9 51
2019-06-08 13:00:00 17.7 13 Oeste 23 Oeste 0 1008.4 -0.8 56
2019-06-08 12:00:00 16.2 7 Noroeste 12 Noroeste 0 1008.5 -0.8 60
2019-06-08 11:00:00 14.1 5 Noroeste 9 Nordeste 0 1009.1 -0.3 70
2019-06-08 10:00:00 11.7 6 Nordeste 16 Nordeste 0 1009.2 -0.2 78
2019-06-08 09:00:00 8.8 12 Este 19 Este 0 1009.3 -0.3 85
2019-06-08 08:00:00 8 9 Nordeste 20 Nordeste 0 1009.4 -0.4 87
2019-06-08 07:00:00 7.3 12 Nordeste 20 Nordeste 0 1009.4 -0.6 89
2019-06-08 06:00:00 7.7 11 Nordeste 19 Nordeste 0 1009.6 -0.3 88
2019-06-08 05:00:00 8 12 Este 22 Nordeste 0 1009.8 -0.3 88
2019-06-08 04:00:00 8.2 5 Este 21 Este 0 1010 -0.3 87
2019-06-08 03:00:00 8.5 9 Este 15 Nordeste 0 1009.9 -0.5 87
2019-06-08 02:00:00 9.1 12 Este 18 Este 0 1010.1 0.2 86
2019-06-08 01:00:00 10 11 Nordeste 15 Nordeste 0 1010.3 1 83
2019-06-08 00:00:00 10.7 0 Calma 6 Este 0 1010.4 1.7 82
2019-06-07 23:00:00 11.9 2 Norte 10 Oeste 0 1009.9 1.6 76
2019-06-07 22:00:00 13.8 6 Sudoeste 19 Oeste 0 1009.3 1.2 63
2019-06-07 21:00:00 15.9 12 Oeste 21 Sudoeste 0 1008.7 1.1 54
2019-06-07 20:00:00 15.3 11 Sudoeste 21 Sudoeste 0 1008.3 1.1 59
2019-06-07 19:00:00 15.1 13 Sudoeste 29 Sudoeste 0 1008.1 1.3 62
2019-06-07 18:00:00 16.4 19 Sudoeste 36 Sudoeste 0 1007.6 1.1 56
2019-06-07 17:00:00 16.8 18 Sudoeste 34 Sudoeste 0 1007.2 1.6 61
2019-06-07 16:00:00 16.5 18 Sudoeste 34 Sudoeste 0 1006.8 1.8 65
2019-06-07 15:00:00 15.5 12 Oeste 36 Sudoeste 0 1006.5 2.3 65
2019-06-07 14:00:00 15.8 19 Sudoeste 38 Sudoeste 0 1005.6 1.9 68
2019-06-07 13:00:00 15.5 14 Sudoeste 33 Sudoeste 0 1005 1.8 69
2019-06-07 12:00:00 13.3 14 Sudoeste 30 Sur 1.2 1004.2 1.8 83
2019-06-07 11:00:00 13.1 5 Sur 12 Sur 0 1003.7 2.1 87
2019-06-07 10:00:00 12 4 Norte 9 Sur 0.8 1003.2 2.7 91
2019-06-07 09:00:00 10.2 4 Este 18 Noroeste 1.4 1002.4 2.5 98
2019-06-07 08:00:00 8.7 4 Nordeste 9 Norte 0.4 1001.6 2.4 98
2019-06-07 07:00:00 8.3 6 Este 14 Nordeste 0 1000.5 1.8 96
2019-06-07 06:00:00 8.7 3 Norte 8 Sudeste 0 999.9 2.1 96
2019-06-07 05:00:00 9.2 2 Sur 14 Norte 3.6 999.2 1.9 94
2019-06-07 04:00:00 9.6 4 Oeste 22 Sur 0.2 998.7 2 94
2019-06-07 03:00:00 9.6 11 Sur 18 Sur 0.4 997.8 2 95
2019-06-07 02:00:00 10.4 12 Oeste 24 Oeste 1 997.3 2.5 86
2019-06-07 01:00:00 10.6 5 Sudoeste 22 Sudoeste 0.6 996.7 2.6 93
2019-06-07 00:00:00 10.6 8 Sudoeste 24 Sur 1.6 995.8 2.7 91
2019-06-06 23:00:00 11 9 Sudoeste 21 Sudoeste 0 994.8 2.9 91
2019-06-06 22:00:00 10.9 6 Sudoeste 21 Sudoeste 1.2 994.1 2.6 92
2019-06-06 21:00:00 11.5 11 Sudoeste 50 Sudoeste 1.8 993.1 2.6 93
2019-06-06 20:00:00 13.2 19 Sudoeste 49 Sudoeste 0 991.9 2.1 79
2019-06-06 19:00:00 13.6 24 Sudoeste 48 Sudoeste 0 991.5 2.6 80
2019-06-06 18:00:00 14.4 29 Sudoeste 58 Sudoeste 0 990.5 3 77
2019-06-06 17:00:00 14.2 24 Sudoeste 60 Sudoeste 0 989.8 0.4 85
2019-06-06 16:00:00 13.4 27 Sur 64 Sudeste 10.6 988.9 -1.1 96
2019-06-06 15:00:00 12.8 30 Sudeste 62 Sur 10.6 987.5 -3.4 95
2019-06-06 14:00:00 12.5 27 Sudeste 60 Sur 7.4 989.4 -3.8 94
2019-06-06 13:00:00 12.9 23 Sudeste 59 Sudeste 2 990 -4.3 89
2019-06-06 12:00:00 13 15 Sudeste 42 Sur 0.6 990.9 -4.2 85
2019-06-06 11:00:00 12.4 13 Sur 36 Sur 0 993.2 -3.1 85
2019-06-06 10:00:00 12.1 15 Sudeste 40 Sudeste 0.4 994.3 -3.3 84
2019-06-06 09:00:00 11.9 13 Sudeste 27 Sudeste 0 995.1 -3.2 86
2019-06-06 08:00:00 11.5 9 Sudeste 21 Sudeste 0 996.3 -2.9 86
2019-06-06 07:00:00 11.2 9 Sudeste 22 Este 0 997.6 -2.5 90
2019-06-06 06:00:00 11.1 6 Sudeste 32 Sudeste 0.6 998.3 -2.6 90
2019-06-06 05:00:00 11.3 10 Sudeste 24 Sudeste 0.4 999.2 -2.2 89
2019-06-06 04:00:00 11.5 6 Sudeste 17 Sur 0 1000.1 -1.9 85
2019-06-06 03:00:00 12.1 9 Sur 22 Sudeste 0 1000.9 -1.5 82
2019-06-06 02:00:00 12.1 3 Sudeste 15 Sudeste 0 1001.4 -0.9 80
2019-06-06 01:00:00 12.2 5 Sur 13 Sudeste 0 1002 -0.4 79
2019-06-06 00:00:00 12.5 5 Sur 12 Sudeste 0 1002.4 -0.1 78
2019-06-05 23:00:00 13 6 Sur 19 Sur 0.2 1002.3 -0.2 76
2019-06-05 22:00:00 13.5 7 Sur 23 Sur 0 1002.4 -0.3 69
2019-06-05 21:00:00 14.4 10 Sudoeste 26 Sudoeste 0 1002.5 -0.5 63
2019-06-05 20:00:00 14.9 12 Sudoeste 32 Sudoeste 0.2 1002.5 -0.4 59
2019-06-05 19:00:00 14.5 17 Sudoeste 34 Sudoeste 0 1002.7 -0.2 64
2019-06-05 18:00:00 13.8 16 Sudoeste 36 Sudoeste 0.2 1003 -0.1 73
2019-06-05 17:00:00 16.7 19 Sudoeste 35 Sudoeste 0 1002.9 -0.4 58
2019-06-05 16:00:00 16.8 17 Sudoeste 35 Sudoeste 0 1002.9 0.1 56
2019-06-05 15:00:00 15.5 14 Oeste 33 Sudoeste 0 1003.1 0.3 60
2019-06-05 14:00:00 14.8 15 Oeste 30 Oeste 0 1003.3 0.6 64
2019-06-05 13:00:00 16.5 13 Sudoeste 27 Sudoeste 0 1002.8 0.2 54
2019-06-05 12:00:00 14.8 13 Oeste 30 Noroeste 0 1002.8 0.7 65
2019-06-05 11:00:00 14.9 5 Sudoeste 12 Sudoeste 0 1002.7 1.1 73
2019-06-05 10:00:00 12.4 2 Oeste 5 Norte 0 1002.6 1.4 93
2019-06-05 09:00:00 11.2 3 Norte 5 Nordeste 0 1002.1 1.3 97
2019-06-05 08:00:00 10.2 0 Calma 9 Este 0.2 1001.6 0.8 97
2019-06-05 07:00:00 9.8 5 Nordeste 8 Nordeste 0.2 1001.2 0.4 95
2019-06-05 06:00:00 9.7 3 Este 10 Nordeste 0 1000.8 0 94
2019-06-05 05:00:00 9.8 3 Nordeste 12 Nordeste 0 1000.8 -0.3 95
2019-06-05 04:00:00 10.1 5 Nordeste 10 Nordeste 0 1000.8 -0.2 91
2019-06-05 03:00:00 10.6 3 Nordeste 7 Este 0 1000.8 -0.2 90
2019-06-05 02:00:00 11.3 5 Nordeste 9 Norte 0.2 1001.1 0.4 90
2019-06-05 01:00:00 12 2 Oeste 14 Oeste 0 1001 0.7 84
2019-06-05 00:00:00 13.3 7 Oeste 15 Oeste 0 1001 0.9 80
2019-06-04 23:00:00 13.6 9 Oeste 19 Oeste 0 1000.7 0.6 78
2019-06-04 22:00:00 14.1 10 Oeste 20 Sudoeste 0 1000.3 0.3 75
2019-06-04 21:00:00 15.6 9 Oeste 22 Sudoeste 0 1000.1 0 69
2019-06-04 20:00:00 16.4 11 Sudoeste 29 Sudoeste 0 1000.1 -0.3 67
2019-06-04 19:00:00 16.3 13 Sudoeste 29 Sudoeste 0 1000 0 67
2019-06-04 18:00:00 14.7 13 Sudoeste 31 Oeste 1.6 1000.1 0.1 80
2019-06-04 17:00:00 15.2 16 Sudoeste 39 Sudoeste 0.8 1000.4 0.6 79
2019-06-04 16:00:00 16.7 18 Sudoeste 33 Sudoeste 0 1000 0.3 68
2019-06-04 15:00:00 17.6 17 Sudoeste 36 Sudoeste 0 1000 0.6 66
2019-06-04 14:00:00 17.4 13 Sudoeste 32 Sudoeste 0 999.8 0.6 71
2019-06-04 13:00:00 15.8 14 Sudoeste 33 Sudoeste 0 999.7 0.8 74
2019-06-04 12:00:00 17.1 12 Oeste 23 Oeste 0 999.4 1.3 64
2019-06-04 11:00:00 16.3 13 Oeste 26 Oeste 0 999.2 2.1 70
2019-06-04 10:00:00 14.4 10 Sudoeste 24 Sudoeste 0 998.9 1.8 83
2019-06-04 09:00:00 14 8 Sudoeste 45 Sudoeste 1.2 998.1 0.8 96
2019-06-04 08:00:00 14.2 18 Sur 32 Sur 2 997.1 -0.7 96
2019-06-04 07:00:00 14 8 Sur 19 Sur 1.8 997.1 -1.1 94
2019-06-04 06:00:00 15.2 9 Sur 29 Sur 0 997.3 -1.6 84
2019-06-04 05:00:00 15.4 10 Sur 23 Sur 0 997.8 -1.8 81
2019-06-04 04:00:00 14.9 4 Sur 14 Sur 0 998.2 -2.5 78
2019-06-04 03:00:00 15 4 Sur 11 Sudeste 0 998.9 -2.4 76
2019-06-04 02:00:00 14.9 2 Sudeste 9 Nordeste 0 999.6 -1.9 80
2019-06-04 01:00:00 15.2 3 Noroeste 10 Sudeste 0 1000.7 -1 80
2019-06-04 00:00:00 15.2 0 Calma 7 Sur 0 1001.3 -0.5 78
2019-06-03 23:00:00 15.4 3 Sudoeste 15 Sudoeste 0 1001.5 -0.5 79
2019-06-03 22:00:00 15.8 6 Sudoeste 17 Sudoeste 0 1001.7 -0.7 74
2019-06-03 21:00:00 16.8 12 Sudoeste 19 Sudoeste 0 1001.8 -0.7 72
2019-06-03 20:00:00 18 11 Sudoeste 23 Sudoeste 0 1002 -0.7 69
2019-06-03 19:00:00 17.5 13 Sudoeste 25 Sudoeste 0 1002.4 -0.5 76
2019-06-03 18:00:00 18.2 15 Sudoeste 28 Sudoeste 0 1002.5 -0.8 72
2019-06-03 17:00:00 18.4 12 Sudoeste 28 Sudoeste 0 1002.7 -0.6 75
2019-06-03 16:00:00 17.8 16 Sudoeste 29 Sudoeste 0 1002.9 -0.8 79
2019-06-03 15:00:00 17.2 16 Sudoeste 31 Sudoeste 0 1003.3 -0.4 91
2019-06-03 14:00:00 17.9 13 Sudoeste 22 Sudoeste 0.2 1003.3 -0.2 90
2019-06-03 13:00:00 16.7 11 Sudoeste 25 Sudoeste 0.2 1003.7 0.1 94
2019-06-03 12:00:00 17 11 Sudoeste 24 Sudoeste 0 1003.7 0.2 93
2019-06-03 11:00:00 18.2 6 Sur 13 Sur 0 1003.5 0.2 90
2019-06-03 10:00:00 16.1 2 Este 7 Sudeste 0.2 1003.6 0.3 96
2019-06-03 09:00:00 15.8 4 Norte 6 Noroeste 0.4 1003.5 0.3 94
2019-06-03 08:00:00 16 0 Calma 8 Norte 0 1003.3 0 93
2019-06-03 07:00:00 15.9 5 Noroeste 8 Noroeste 0 1003.3 -0.5 93
2019-06-03 06:00:00 16.3 3 Noroeste 5 Noroeste 0 1003.2 -1 90
2019-06-03 05:00:00 16.5 0 Calma 6 Noroeste 0 1003.3 -1.1 88
2019-06-03 04:00:00 16.2 4 Noroeste 7 Noroeste 0 1003.8 -1.2 90
2019-06-03 03:00:00 16.3 4 Este 6 Este 0 1004.2 -0.9 90
2019-06-03 02:00:00 16.3 2 Este 8 Sur 0 1004.4 -0.5 89
2019-06-03 01:00:00 16.6 3 Sur 7 Sur 0 1005 0.4 87
2019-06-03 00:00:00 16.6 2 Sudeste 8 Este 0 1005.1 0.8 86
2019-06-02 23:00:00 16.2 3 Sudeste 12 Sudoeste 0 1004.9 0.7 87
2019-06-02 22:00:00 16.5 9 Sudoeste 17 Sudoeste 0 1004.6 0.3 86
2019-06-02 21:00:00 17.3 6 Sudoeste 21 Sudoeste 0 1004.3 0.2 80
2019-06-02 20:00:00 18.3 11 Sudoeste 25 Sudoeste 0 1004.2 -0.1 75
2019-06-02 19:00:00 19.2 13 Sudoeste 27 Sudoeste 0 1004.3 0 69
2019-06-02 18:00:00 21.6 11 Sudoeste 19 Oeste 0 1004.1 -0.6 61
2019-06-02 17:00:00 22.1 10 Sudoeste 24 Sudoeste 0 1004.3 -0.7 60
2019-06-02 16:00:00 21.1 9 Sudoeste 23 Sudoeste 0 1004.3 -0.8 65
2019-06-02 15:00:00 21.4 10 Sudoeste 19 Sudoeste 0 1004.7 -0.5 66
2019-06-02 14:00:00 20.6 9 Sudoeste 14 Sudoeste 0 1005 -0.2 66
2019-06-02 13:00:00 20 9 Sudoeste 14 Oeste 0 1005.1 0.4 64
2019-06-02 12:00:00 18.2 5 Oeste 11 Oeste 0 1005.2 0.6 74
2019-06-02 11:00:00 16.1 6 Sudoeste 12 Oeste 0 1005.2 1.3 83
2019-06-02 10:00:00 15 4 Oeste 9 Sur 0 1004.7 1.2 87
2019-06-02 09:00:00 13.9 5 Sudoeste 13 Sur 0 1004.6 1.1 82
2019-06-02 08:00:00 13.3 5 Este 11 Nordeste 0 1003.9 0.2 66
2019-06-02 07:00:00 13.1 9 Este 15 Este 0 1003.5 -0.3 65
2019-06-02 06:00:00 13.3 7 Este 14 Este 0 1003.5 -0.9 67
2019-06-02 05:00:00 14 5 Este 22 Nordeste 0 1003.7 -1.2 64
2019-06-02 04:00:00 14.6 6 Este 14 Este 0 1003.8 -1.1 64
2019-06-02 03:00:00 15.1 4 Este 15 Nordeste 0 1004.4 -0.6 66
2019-06-02 02:00:00 16 3 Este 11 Este 0 1004.9 0.2 71
2019-06-02 01:00:00 17.1 6 Nordeste 11 Nordeste 0 1004.9 0.7 62
2019-06-02 00:00:00 18.2 5 Nordeste 9 Nordeste 0 1005 1.1 61
2019-06-01 23:00:00 19.2 4 Sudoeste 6 Sudoeste 0 1004.7 0.8 55
2019-06-01 22:00:00 21.5 2 Sur 5 Sudoeste 0 1004.2 0.3 44
2019-06-01 21:00:00 24.8 4 Sudoeste 10 Sudoeste 0 1003.9 -0.2 37
2019-06-01 20:00:00 25.9 5 Sudoeste 17 Sudoeste 0 1003.9 -0.7 35
2019-06-01 19:00:00 26.8 7 Sudoeste 19 Sudoeste 0 1003.9 -0.7 33
2019-06-01 18:00:00 27.3 13 Sudoeste 25 Sudoeste 0 1004.1 -0.5 36
2019-06-01 17:00:00 27.4 13 Sudoeste 31 Sudoeste 0 1004.6 -0.4 35
2019-06-01 16:00:00 26.3 14 Sudoeste 26 Sur 0 1004.6 -0.5 41
2019-06-01 15:00:00 28.9 9 Oeste 17 Sudoeste 0 1004.6 -0.3 38
2019-06-01 14:00:00 28.7 6 Sudoeste 15 Sudoeste 0 1005 0.1 35
2019-06-01 13:00:00 28 6 Sudoeste 14 Oeste 0 1005.1 0.2 41
2019-06-01 12:00:00 27.1 3 Sur 8 Noroeste 0 1004.9 0.1 41
2019-06-01 11:00:00 24.6 3 Norte 7 Noroeste 0 1004.9 0.2 49
2019-06-01 10:00:00 20.8 3 Este 6 Este 0 1004.9 0.5 55
2019-06-01 09:00:00 17 0 Calma 21 Nordeste 0 1004.8 0.5 63
2019-06-01 08:00:00 15.1 4 Este 17 Nordeste 0 1004.7 0.3 65
2019-06-01 07:00:00 15.8 10 Nordeste 19 Nordeste 0 1004.4 -0.1 61
2019-06-01 06:00:00 15.7 4 Este 17 Este 0 1004.3 -0.4 63
2019-06-01 05:00:00 16.8 7 Nordeste 21 Nordeste 0 1004.4 -0.7 59
2019-06-01 04:00:00 17.5 14 Este 21 Nordeste 0 1004.5 -1 58
2019-06-01 03:00:00 18.4 8 Nordeste 22 Nordeste 0 1004.7 -1 56
2019-06-01 02:00:00 19.2 11 Este 20 Nordeste 0 1005.1 -0.4 55
2019-06-01 01:00:00 19.9 12 Nordeste 19 Nordeste 0 1005.5 0.3 56
2019-06-01 00:00:00 20.3 8 Este 14 Este 0 1005.7 0.5 57
2019-05-31 23:00:00 20.7 5 Nordeste 7 Nordeste 0 1005.5 0.3 53
2019-05-31 22:00:00 22.8 5 Sudeste 8 Sur 0 1005.2 -0.1 48
2019-05-31 21:00:00 26.8 4 Sur 9 Sur 0 1005.2 -0.4 35
2019-05-31 20:00:00 28.2 6 Sudoeste 12 Sudoeste 0 1005.2 -0.9 33
2019-05-31 19:00:00 28.7 6 Sudoeste 16 Sudoeste 0 1005.3 -0.8 31
2019-05-31 18:00:00 28.7 9 Sudoeste 19 Sudoeste 0 1005.6 -0.4 32
2019-05-31 17:00:00 27.5 14 Sudoeste 30 Sudoeste 0 1006.1 0.5 32
2019-05-31 16:00:00 28.5 14 Sudoeste 33 Sudoeste 0 1006.1 0.4 34
2019-05-31 15:00:00 29 20 Sudoeste 45 Sudoeste 0 1006 0.3 36
2019-05-31 14:00:00 33.7 11 Sur 23 Sur 0 1005.6 -0.3 24
2019-05-31 13:00:00 32.1 6 Sudoeste 10 Sudoeste 0 1005.7 -0.2 30
2019-05-31 12:00:00 30.1 3 Sudoeste 7 Oeste 0 1005.7 -0.2 40
2019-05-31 11:00:00 27.4 4 Oeste 6 Sudoeste 0 1005.9 0 51
2019-05-31 10:00:00 24.8 2 Oeste 13 Nordeste 0 1005.9 0.2 58
2019-05-31 09:00:00 22.9 8 Nordeste 13 Nordeste 0 1005.9 0.3 51
2019-05-31 08:00:00 20.6 4 Sudeste 14 Nordeste 0 1005.9 0.4 57
2019-05-31 07:00:00 19.7 10 Este 16 Nordeste 0 1005.7 -0.1 55
2019-05-31 06:00:00 20.8 11 Nordeste 20 Nordeste 0 1005.6 -0.8 49
2019-05-31 05:00:00 20.5 6 Nordeste 17 Este 0 1005.5 -1.5 52
2019-05-31 04:00:00 21.5 12 Este 16 Nordeste 0 1005.8 -1.4 47
2019-05-31 03:00:00 21.2 8 Este 13 Este 0 1006.4 -1.1 49
2019-05-31 02:00:00 22 0 Calma 12 Nordeste 0 1007 -0.4 50
2019-05-31 01:00:00 23.1 7 Nordeste 13 Nordeste 0 1007.2 0.2 48
2019-05-31 00:00:00 23.7 5 Nordeste 18 Nordeste 0 1007.5 0.6 48
2019-05-30 23:00:00 23.2 4 Norte 8 Nordeste 0 1007.4 0.6 50
2019-05-30 22:00:00 25.2 2 Norte 5 Nordeste 0 1007 -0.3 46
2019-05-30 21:00:00 27.6 3 Sudoeste 13 Sudoeste 0 1006.9 -0.8 38
2019-05-30 20:00:00 27.8 8 Sudoeste 16 Sudoeste 0 1006.8 -1.2 39
2019-05-30 19:00:00 28.6 8 Sudoeste 19 Sudoeste 0 1007.3 -1 36
2019-05-30 18:00:00 28.9 14 Sudoeste 23 Sudoeste 0 1007.7 -0.9 34
2019-05-30 17:00:00 29.9 11 Sudoeste 22 Sudoeste 0 1008 -0.8 34
2019-05-30 16:00:00 29.3 12 Sudoeste 27 Sudoeste 0 1008.3 -0.6 35
2019-05-30 15:00:00 29.4 11 Oeste 23 Sudoeste 0 1008.6 -0.4 33
2019-05-30 14:00:00 30 10 Sudoeste 21 Sudoeste 0 1008.8 -0.3 38
2019-05-30 13:00:00 29.6 5 Sudoeste 12 Oeste 0 1008.9 -0.3 33
2019-05-30 12:00:00 27.6 3 Sur 8 Sudoeste 0 1009 0 47
2019-05-30 11:00:00 24.7 3 Noroeste 6 Noroeste 0 1009.1 0.3 51
2019-05-30 10:00:00 21.1 0 Calma 8 Nordeste 0 1009.2 0.9 60
2019-05-30 09:00:00 18.6 0 Calma 4 Oeste 0 1009 1 63
2019-05-30 08:00:00 16.1 3 Sudeste 9 Nordeste 0 1008.8 0.8 68
2019-05-30 07:00:00 16.4 5 Este 17 Nordeste 0 1008.3 0.3 68
2019-05-30 06:00:00 17 9 Este 18 Nordeste 0 1008 -0.3 59
2019-05-30 05:00:00 16.3 0 Calma 5 Nordeste 0 1008 -0.6 68
2019-05-30 04:00:00 17.4 3 Sudeste 9 Nordeste 0 1008 -0.8 68
2019-05-30 03:00:00 18 0 Calma 5 Sudeste 0 1008.3 -0.5 70
2019-05-30 02:00:00 18.7 5 Sudeste 6 Sudeste 0 1008.6 -0.1 68
2019-05-30 01:00:00 20.4 3 Norte 13 Nordeste 0 1008.8 0.9 60
2019-05-30 00:00:00 21.3 7 Norte 17 Nordeste 0 1008.8 1.3 60
2019-05-29 23:00:00 22.8 4 Nordeste 15 Norte 0 1008.7 1.6 55
2019-05-29 22:00:00 24.8 8 Norte 19 Noroeste 0 1007.9 0.8 50
2019-05-29 21:00:00 27.7 12 Norte 22 Noroeste 0 1007.5 0.4 37
2019-05-29 20:00:00 29 10 Norte 28 Nordeste 0 1007.1 -0.3 33
2019-05-29 19:00:00 30 10 Norte 26 Norte 0 1007.1 -0.6 34
2019-05-29 18:00:00 30.3 13 Norte 25 Norte 0 1007.1 -1 30
2019-05-29 17:00:00 30.3 11 Norte 27 Noroeste 0 1007.4 -1.1 29
2019-05-29 16:00:00 29.9 13 Noroeste 25 Norte 0 1007.7 -1 29
2019-05-29 15:00:00 29.3 10 Norte 27 Norte 0 1008.1 -0.7 30
2019-05-29 14:00:00 27.8 11 Noroeste 26 Noroeste 0 1008.5 -0.5 33
2019-05-29 13:00:00 26.1 9 Norte 21 Noroeste 0 1008.7 -0.5 39
2019-05-29 12:00:00 23.1 5 Sur 10 Sur 0 1008.8 -0.6 49
2019-05-29 11:00:00 20.6 5 Oeste 10 Norte 0 1009 -0.4 51
2019-05-29 10:00:00 18.4 6 Nordeste 10 Nordeste 0 1009.2 -0.1 52
2019-05-29 09:00:00 14 2 Norte 7 Sudeste 0 1009.4 -0.1 67
2019-05-29 08:00:00 10.9 2 Sur 7 Sur 0 1009.4 0.1 75
2019-05-29 07:00:00 10.4 2 Sudeste 5 Oeste 0 1009.3 -0.2 78
2019-05-29 06:00:00 11 0 Calma 5 Sudeste 0 1009.5 0 74
2019-05-29 05:00:00 13.1 4 Norte 19 Nordeste 0 1009.3 -0.5 63
2019-05-29 04:00:00 13.2 3 Norte 18 Nordeste 0 1009.5 0 64
2019-05-29 03:00:00 13.5 8 Nordeste 23 Nordeste 0 1009.5 0.2 62
2019-05-29 02:00:00 13.4 9 Nordeste 20 Nordeste 0 1009.8 0.6 63
2019-05-29 01:00:00 14.2 9 Norte 21 Norte 0 1009.5 1 57
2019-05-29 00:00:00 15.1 6 Norte 16 Nordeste 0 1009.3 1.6 56
2019-05-28 23:00:00 16.2 5 Norte 21 Norte 0 1009.2 1.8 64
2019-05-28 22:00:00 17.8 15 Norte 33 Norte 0 1008.5 1.6 58
2019-05-28 21:00:00 20.2 13 Norte 36 Norte 0 1007.7 0.9 50
2019-05-28 20:00:00 22 16 Norte 33 Noroeste 0 1007.4 0.6 48
2019-05-28 19:00:00 23.2 17 Norte 32 Norte 0 1006.9 0 47
2019-05-28 18:00:00 23.8 17 Norte 32 Norte 0 1006.8 -0.3 43
2019-05-28 17:00:00 24.2 16 Noroeste 40 Norte 0 1006.8 -0.6 41
2019-05-28 16:00:00 23.7 14 Norte 32 Norte 0 1006.9 -0.6 39
2019-05-28 15:00:00 22.7 14 Norte 36 Noroeste 0 1007.1 -0.4 40
2019-05-28 14:00:00 21.7 13 Norte 30 Noroeste 0 1007.4 0 42
2019-05-28 13:00:00 20.1 15 Norte 35 Nordeste 0 1007.5 0.2 46
2019-05-28 12:00:00 18.4 20 Nordeste 37 Nordeste 0 1007.5 0.5 50
2019-05-28 11:00:00 17.1 17 Nordeste 42 Noroeste 0 1007.4 0.4 55
2019-05-28 10:00:00 15.7 17 Norte 42 Nordeste 0 1007.3 0.7 57
2019-05-28 09:00:00 13.8 10 Norte 27 Norte 0 1007 0.8 65
2019-05-28 08:00:00 10 5 Oeste 13 Noroeste 0 1007 1 81
2019-05-28 07:00:00 9.7 4 Noroeste 8 Oeste 0 1006.6 0.5 81
2019-05-28 06:00:00 10.6 3 Sur 17 Nordeste 0 1006.2 0.4 77
2019-05-28 05:00:00 11.2 8 Nordeste 19 Nordeste 0 1006 0.1 73
2019-05-28 04:00:00 11.6 10 Noroeste 26 Nordeste 0 1006.1 0 73
2019-05-28 03:00:00 11.9 6 Norte 23 Norte 0 1005.8 -0.2 72
2019-05-28 02:00:00 12.4 7 Norte 26 Nordeste 0 1005.9 0.5 72
2019-05-28 01:00:00 12.6 5 Norte 23 Norte 0 1006.1 1.4 75
2019-05-28 00:00:00 13.4 12 Norte 36 Norte 0 1006 1.7 74